Time;durP1;ratioP1;P1;durP2;ratioP2;P2;SDS_P1;SDS_P2;PMS_P1;PMS_P2;Temp;Humidity;BMP_temperature;BMP_pressure;BME280_temperature;BME280_humidity;BME280_pressure;Samples;Min_cycle;Max_cycle;Signal;HPM_P1;HPM_P2
2024/03/15 00:02:16;;;;;;;3.03;2.57;;;12.40;99.90;;;;;;5064357;28;20414;-79
2024/03/15 00:04:42;;;;;;;0.30;0.20;;;12.40;99.90;;;;;;5065974;28;20754;-77
2024/03/15 00:07:08;;;;;;;0.30;0.20;;;12.40;99.90;;;;;;5065298;28;20242;-78
2024/03/15 00:09:34;;;;;;;0.30;0.20;;;12.30;99.90;;;;;;5064143;28;20823;-74
2024/03/15 00:12:02;;;;;;;0.30;0.20;;;12.30;99.90;;;;;;5065194;28;20408;-74
2024/03/15 00:14:28;;;;;;;0.67;0.67;;;12.30;99.90;;;;;;5065279;28;20201;-78
2024/03/15 00:16:54;;;;;;;0.30;0.20;;;12.30;99.90;;;;;;5065213;28;20518;-79
2024/03/15 00:19:21;;;;;;;0.40;0.40;;;12.30;99.90;;;;;;5065517;28;20201;-74
2024/03/15 00:21:47;;;;;;;1.30;1.20;;;12.30;99.90;;;;;;5065511;28;20803;-74
2024/03/15 00:24:14;;;;;;;0.30;0.30;;;12.30;99.90;;;;;;5064625;28;20434;-79
2024/03/15 00:26:40;;;;;;;0.40;0.40;;;12.30;99.90;;;;;;5063457;28;20422;-74
2024/03/15 00:29:06;;;;;;;0.30;0.30;;;12.30;99.90;;;;;;5064206;28;20509;-74
2024/03/15 00:31:32;;;;;;;0.30;0.20;;;12.30;99.90;;;;;;5064772;28;20560;-79
2024/03/15 00:33:57;;;;;;;0.30;0.20;;;12.30;99.90;;;;;;5064196;28;20430;-75
2024/03/15 00:36:24;;;;;;;2.57;2.37;;;12.20;99.90;;;;;;5063860;28;20208;-78
2024/03/15 00:38:53;;;;;;;0.30;0.20;;;12.20;99.90;;;;;;5065905;28;20200;-78
2024/03/15 00:41:19;;;;;;;0.30;0.20;;;12.20;99.90;;;;;;5065214;28;20465;-75
2024/03/15 00:43:47;;;;;;;0.30;0.20;;;12.20;99.90;;;;;;5065175;28;20731;-74
2024/03/15 00:46:14;;;;;;;0.90;0.83;;;12.20;99.90;;;;;;5064994;28;20424;-79
2024/03/15 00:48:41;;;;;;;1.47;1.03;;;12.20;99.90;;;;;;5065024;28;20476;-79
2024/03/15 00:51:08;;;;;;;0.30;0.20;;;12.20;99.90;;;;;;5065259;28;20785;-74
2024/03/15 00:53:34;;;;;;;0.30;0.30;;;12.20;99.90;;;;;;5064881;28;20425;-74
2024/03/15 00:55:59;;;;;;;0.30;0.20;;;12.20;99.90;;;;;;5063561;28;20666;-74
2024/03/15 00:58:25;;;;;;;0.40;0.40;;;12.20;99.90;;;;;;5065081;28;20436;-74
2024/03/15 01:00:51;;;;;;;2.00;1.90;;;12.20;99.90;;;;;;5065175;28;20170;-74
2024/03/15 01:03:18;;;;;;;0.30;0.20;;;12.20;99.90;;;;;;5065196;28;20241;-78
2024/03/15 01:05:44;;;;;;;0.93;0.93;;;12.20;99.90;;;;;;5063631;28;20207;-74
2024/03/15 01:08:10;;;;;;;2.60;2.50;;;12.10;99.90;;;;;;5063722;28;20932;-74
2024/03/15 01:10:36;;;;;;;0.40;0.40;;;12.20;99.90;;;;;;5065089;28;20504;-79
2024/03/15 01:13:03;;;;;;;0.30;0.20;;;12.20;99.90;;;;;;5064698;28;20205;-79
2024/03/15 01:15:29;;;;;;;0.30;0.27;;;12.20;99.90;;;;;;5064827;28;20655;-74
2024/03/15 01:17:55;;;;;;;2.23;0.97;;;12.20;99.90;;;;;;5064621;28;20500;-74
2024/03/15 01:20:21;;;;;;;0.30;0.20;;;12.20;99.90;;;;;;5065089;28;20453;-74
2024/03/15 01:22:47;;;;;;;1.37;0.80;;;12.20;99.90;;;;;;5064492;28;20189;-74
2024/03/15 01:25:16;;;;;;;0.30;0.20;;;12.20;99.90;;;;;;5063227;28;20676;-78
2024/03/15 01:27:42;;;;;;;0.30;0.20;;;12.10;99.90;;;;;;5064341;28;20215;-75
2024/03/15 01:30:10;;;;;;;0.30;0.20;;;12.10;99.90;;;;;;5063953;28;20429;-78
2024/03/15 01:32:36;;;;;;;0.30;0.20;;;12.10;99.90;;;;;;5063218;28;20461;-78
2024/03/15 01:35:05;;;;;;;2.23;2.10;;;12.10;99.90;;;;;;5065781;28;20926;-78
2024/03/15 01:37:31;;;;;;;0.60;0.60;;;12.10;99.90;;;;;;5068122;28;20429;-75
2024/03/15 01:39:58;;;;;;;0.30;0.30;;;12.00;99.90;;;;;;5068631;28;20890;-74
2024/03/15 01:42:23;;;;;;;0.40;0.40;;;12.00;99.90;;;;;;5067964;28;20172;-74
2024/03/15 01:44:52;;;;;;;0.30;0.20;;;12.00;99.90;;;;;;5068300;28;20769;-74
2024/03/15 01:47:21;;;;;;;0.30;0.20;;;12.00;99.90;;;;;;5067920;28;20220;-74
2024/03/15 01:49:50;;;;;;;0.30;0.20;;;12.00;99.90;;;;;;5066843;28;20934;-78
2024/03/15 01:52:16;;;;;;;0.30;0.20;;;12.00;99.90;;;;;;5067731;28;20524;-74
2024/03/15 01:54:44;;;;;;;0.30;0.20;;;12.00;99.90;;;;;;5068220;28;20169;-77
2024/03/15 01:57:10;;;;;;;0.30;0.20;;;12.00;99.90;;;;;;5068023;28;20612;-74
2024/03/15 01:59:35;;;;;;;0.30;0.20;;;12.00;99.90;;;;;;5067993;28;20410;-74
2024/03/15 02:02:05;;;;;;;0.53;0.50;;;12.00;99.90;;;;;;5067754;28;20176;-79
2024/03/15 02:04:31;;;;;;;0.30;0.20;;;12.00;99.90;;;;;;5066909;28;20207;-79
2024/03/15 02:06:59;;;;;;;0.33;0.30;;;12.00;99.90;;;;;;5067429;28;20462;-74
2024/03/15 02:09:28;;;;;;;0.30;0.20;;;12.00;99.90;;;;;;5067792;28;20579;-78
2024/03/15 02:11:54;;;;;;;10.43;9.83;;;11.90;99.90;;;;;;5067568;28;20406;-74
2024/03/15 02:14:21;;;;;;;0.30;0.20;;;11.90;99.90;;;;;;5067767;28;20433;-74
2024/03/15 02:16:46;;;;;;;1.20;1.20;;;11.90;99.90;;;;;;5067430;28;20429;-74
2024/03/15 02:19:12;;;;;;;0.40;0.37;;;11.90;99.90;;;;;;5067888;28;20470;-78
2024/03/15 02:21:38;;;;;;;4.73;3.83;;;11.80;99.90;;;;;;5067684;28;20185;-75
2024/03/15 02:24:05;;;;;;;0.30;0.20;;;11.80;99.90;;;;;;5066082;28;20467;-74
2024/03/15 02:26:34;;;;;;;0.30;0.20;;;11.80;99.90;;;;;;5067235;28;20414;-74
2024/03/15 02:29:02;;;;;;;0.30;0.20;;;11.80;99.90;;;;;;5067488;28;20432;-74
2024/03/15 02:31:27;;;;;;;0.30;0.20;;;11.80;99.90;;;;;;5067691;28;20867;-77
2024/03/15 02:33:54;;;;;;;0.30;0.20;;;11.80;99.90;;;;;;5065108;28;20453;-75
2024/03/15 02:36:20;;;;;;;1.90;1.80;;;11.70;99.90;;;;;;5066846;28;20669;-74
2024/03/15 02:38:47;;;;;;;0.30;0.20;;;11.70;99.90;;;;;;5065904;28;20469;-78
2024/03/15 02:41:13;;;;;;;1.83;1.80;;;11.70;99.90;;;;;;5067406;28;20422;-75
2024/03/15 02:43:44;;;;;;;0.77;0.77;;;11.60;99.90;;;;;;5065945;28;20516;-79
2024/03/15 02:46:10;;;;;;;0.30;0.20;;;11.60;99.90;;;;;;5065089;28;20438;-74
2024/03/15 02:48:39;;;;;;;3.60;3.50;;;11.60;99.90;;;;;;5065267;28;21021;-74
2024/03/15 02:51:05;;;;;;;0.30;0.20;;;11.60;99.90;;;;;;5067224;28;20418;-74
2024/03/15 02:53:31;;;;;;;0.30;0.30;;;11.70;99.90;;;;;;5066602;28;20434;-79
2024/03/15 02:55:59;;;;;;;0.30;0.20;;;11.70;99.90;;;;;;5066994;28;21076;-74
2024/03/15 02:58:26;;;;;;;0.30;0.20;;;11.60;99.90;;;;;;5065721;28;20456;-78
2024/03/15 03:00:52;;;;;;;0.30;0.30;;;11.70;99.90;;;;;;5066990;28;20418;-74
2024/03/15 03:03:17;;;;;;;0.30;0.20;;;11.70;99.90;;;;;;5066829;28;20434;-78
2024/03/15 03:05:43;;;;;;;0.30;0.30;;;11.70;99.90;;;;;;5066688;28;20181;-74
2024/03/15 03:08:09;;;;;;;0.40;0.40;;;11.60;99.90;;;;;;5066204;28;20701;-75
2024/03/15 03:10:34;;;;;;;9.70;8.63;;;11.60;99.90;;;;;;5066669;28;20181;-74
2024/03/15 03:13:01;;;;;;;11.90;11.00;;;11.50;99.90;;;;;;5066150;28;20203;-74
2024/03/15 03:15:27;;;;;;;0.30;0.20;;;11.50;99.90;;;;;;5066610;28;20260;-79
2024/03/15 03:17:53;;;;;;;0.30;0.20;;;11.50;99.90;;;;;;5066112;28;20972;-78
2024/03/15 03:20:19;;;;;;;0.30;0.20;;;11.50;99.90;;;;;;5066582;28;20208;-74
2024/03/15 03:22:53;;;;;;;1.23;1.23;;;11.60;99.90;;;;;;5066263;28;20417;-74
2024/03/15 03:25:19;;;;;;;0.30;0.20;;;11.60;99.90;;;;;;5066599;28;20417;-74
2024/03/15 03:27:45;;;;;;;0.30;0.30;;;11.60;99.90;;;;;;5065566;28;20473;-79
2024/03/15 03:30:11;;;;;;;0.30;0.20;;;11.60;99.90;;;;;;5066388;28;20422;-79
2024/03/15 03:32:38;;;;;;;0.30;0.20;;;11.60;99.90;;;;;;5066175;28;20189;-74
2024/03/15 03:35:07;;;;;;;0.30;0.20;;;11.60;99.90;;;;;;5066137;28;20178;-75
2024/03/15 03:37:33;;;;;;;0.50;0.50;;;11.60;99.90;;;;;;5063494;28;20869;-74
2024/03/15 03:39:59;;;;;;;0.30;0.20;;;11.50;99.90;;;;;;5066262;28;20199;-79
2024/03/15 03:42:27;;;;;;;0.30;0.20;;;11.50;99.90;;;;;;5064306;28;20279;-74
2024/03/15 03:44:57;;;;;;;0.30;0.30;;;11.60;99.90;;;;;;5064769;28;20934;-74
2024/03/15 03:47:23;;;;;;;0.30;0.20;;;11.60;99.90;;;;;;5065172;28;20728;-79
2024/03/15 03:49:52;;;;;;;1.40;1.40;;;11.50;99.90;;;;;;5064700;28;20688;-78
2024/03/15 03:52:18;;;;;;;0.30;0.20;;;11.50;99.90;;;;;;5065715;28;20184;-78
2024/03/15 03:54:43;;;;;;;0.30;0.20;;;11.50;99.90;;;;;;5066186;28;20394;-75
2024/03/15 03:57:21;;;;;;;0.30;0.20;;;11.50;99.90;;;;;;5065484;28;20181;-74
2024/03/15 03:59:48;;;;;;;0.30;0.20;;;11.50;99.90;;;;;;5065648;28;20193;-74
2024/03/15 04:02:13;;;;;;;0.30;0.20;;;11.50;99.90;;;;;;5063570;28;20215;-74
2024/03/15 04:04:39;;;;;;;0.30;0.20;;;11.40;99.90;;;;;;5064492;28;20727;-78
2024/03/15 04:07:06;;;;;;;0.40;0.20;;;11.40;99.90;;;;;;5065667;28;20294;-78
2024/03/15 04:09:34;;;;;;;0.30;0.20;;;11.50;99.90;;;;;;5065745;28;20442;-74
2024/03/15 04:11:59;;;;;;;1.27;1.23;;;11.40;99.90;;;;;;5065404;28;20178;-79
2024/03/15 04:14:25;;;;;;;1.70;1.23;;;11.40;99.90;;;;;;5065694;28;20197;-79
2024/03/15 04:16:51;;;;;;;0.30;0.20;;;11.40;99.90;;;;;;5065425;28;20294;-74
2024/03/15 04:19:16;;;;;;;0.30;0.20;;;11.40;99.90;;;;;;5065999;28;20196;-79
2024/03/15 04:21:42;;;;;;;0.30;0.20;;;11.30;99.90;;;;;;5065565;28;20205;-77
2024/03/15 04:24:08;;;;;;;0.30;0.20;;;11.30;99.90;;;;;;5065477;28;20185;-79
2024/03/15 04:26:35;;;;;;;0.30;0.20;;;11.40;99.90;;;;;;5065191;28;20191;-78
2024/03/15 04:29:01;;;;;;;0.40;0.30;;;11.30;99.90;;;;;;5064025;28;20458;-74
2024/03/15 04:31:29;;;;;;;0.30;0.20;;;11.30;99.90;;;;;;5065232;28;20188;-74
2024/03/15 04:33:55;;;;;;;3.55;3.30;;;11.20;99.90;;;;;;5065162;28;20979;-74
2024/03/15 04:36:24;;;;;;;0.40;0.40;;;11.20;99.90;;;;;;5064940;28;20504;-79
2024/03/15 04:38:51;;;;;;;0.95;0.95;;;11.10;99.90;;;;;;5064670;28;20189;-74
2024/03/15 04:41:21;;;;;;;0.30;0.20;;;11.10;99.90;;;;;;5065017;28;20667;-74
2024/03/15 04:43:47;;;;;;;0.30;0.20;;;11.00;99.90;;;;;;5063688;28;20204;-74
2024/03/15 04:46:13;;;;;;;1.02;0.98;;;11.00;99.90;;;;;;5064772;28;20264;-75
2024/03/15 04:48:38;;;;;;;0.30;0.20;;;11.00;99.90;;;;;;5064898;28;20292;-75
2024/03/15 04:51:04;;;;;;;2.60;2.40;;;11.00;99.90;;;;;;5064784;28;20271;-74
2024/03/15 04:53:30;;;;;;;0.30;0.20;;;11.00;99.90;;;;;;5065006;28;20268;-74
2024/03/15 04:55:56;;;;;;;7.30;4.33;;;11.00;99.90;;;;;;5065088;28;20177;-74
2024/03/15 04:58:22;;;;;;;0.73;0.73;;;11.00;99.90;;;;;;5065129;28;20428;-79
2024/03/15 05:00:48;;;;;;;0.30;0.30;;;11.00;99.90;;;;;;5063608;28;20253;-75
2024/03/15 05:03:14;;;;;;;0.30;0.20;;;11.10;99.90;;;;;;5064701;28;20343;-78
2024/03/15 05:05:39;;;;;;;3.87;3.50;;;11.00;99.90;;;;;;5065388;28;20509;-79
2024/03/15 05:08:06;;;;;;;5.23;5.03;;;11.10;99.90;;;;;;5064351;28;20875;-74
2024/03/15 05:10:32;;;;;;;0.30;0.20;;;11.00;99.90;;;;;;5066991;28;20292;-79
2024/03/15 05:12:58;;;;;;;1.63;1.17;;;11.00;99.90;;;;;;5068651;28;20280;-79
2024/03/15 05:15:23;;;;;;;0.40;0.40;;;11.00;99.90;;;;;;5068788;28;20654;-74
2024/03/15 05:17:49;;;;;;;0.30;0.20;;;11.10;99.90;;;;;;5068528;28;20477;-79
2024/03/15 05:20:15;;;;;;;1.13;1.07;;;11.10;99.90;;;;;;5068603;28;20196;-74
2024/03/15 05:22:44;;;;;;;0.40;0.40;;;11.10;99.90;;;;;;5068425;28;20197;-78
2024/03/15 05:25:13;;;;;;;0.30;0.20;;;11.10;99.90;;;;;;5067377;28;20185;-79
2024/03/15 05:27:39;;;;;;;0.30;0.30;;;11.10;99.90;;;;;;5068095;28;20242;-78
2024/03/15 05:30:06;;;;;;;4.78;2.85;;;11.10;99.90;;;;;;5067094;28;20255;-79
2024/03/15 05:32:32;;;;;;;0.30;0.20;;;11.10;99.90;;;;;;5066998;28;20268;-74
2024/03/15 05:34:59;;;;;;;0.30;0.30;;;11.10;99.90;;;;;;5067159;28;20258;-79
2024/03/15 05:37:26;;;;;;;0.30;0.20;;;11.10;99.90;;;;;;5067982;28;20177;-74
2024/03/15 05:39:52;;;;;;;1.10;1.10;;;11.10;99.90;;;;;;5066087;28;20185;-75
2024/03/15 05:42:18;;;;;;;0.30;0.30;;;11.10;99.90;;;;;;5068072;28;20169;-74
2024/03/15 05:44:47;;;;;;;0.30;0.20;;;11.10;99.90;;;;;;5067031;28;20410;-74
2024/03/15 05:47:16;;;;;;;0.30;0.20;;;11.10;99.90;;;;;;5067827;28;20200;-78
2024/03/15 05:49:41;;;;;;;0.30;0.20;;;11.20;99.90;;;;;;5068004;28;20181;-79
2024/03/15 05:52:10;;;;;;;0.30;0.20;;;11.20;99.90;;;;;;5066378;28;20711;-74
2024/03/15 05:54:42;;;;;;;0.30;0.20;;;11.20;99.90;;;;;;5067029;28;20413;-74
2024/03/15 05:57:08;;;;;;;0.30;0.20;;;11.20;99.90;;;;;;5066275;28;20264;-78
2024/03/15 05:59:34;;;;;;;3.42;2.90;;;11.30;99.90;;;;;;5067988;28;20177;-78
2024/03/15 06:02:00;;;;;;;0.30;0.20;;;11.30;99.90;;;;;;5066528;28;20165;-76
2024/03/15 06:04:26;;;;;;;0.30;0.20;;;11.30;99.90;;;;;;5067826;28;20189;-74
2024/03/15 06:06:51;;;;;;;0.30;0.30;;;11.30;99.90;;;;;;5067663;28;20173;-78
2024/03/15 06:09:17;;;;;;;0.93;0.87;;;11.30;99.90;;;;;;5067724;28;20454;-74
2024/03/15 06:11:43;;;;;;;0.30;0.20;;;11.30;99.90;;;;;;5067892;28;20188;-74
2024/03/15 06:14:11;;;;;;;0.30;0.30;;;11.30;99.90;;;;;;5067648;28;20224;-78
2024/03/15 06:16:38;;;;;;;0.35;0.32;;;11.30;99.90;;;;;;5066090;28;20461;-78
2024/03/15 06:19:04;;;;;;;0.30;0.20;;;11.40;99.90;;;;;;5067607;28;20229;-78
2024/03/15 06:21:31;;;;;;;0.30;0.20;;;11.40;99.90;;;;;;5066582;28;20223;-74
2024/03/15 06:23:57;;;;;;;0.30;0.20;;;11.50;99.90;;;;;;5067731;28;20418;-78
2024/03/15 06:26:22;;;;;;;0.40;0.40;;;11.40;99.90;;;;;;5066278;28;20230;-78
2024/03/15 06:28:55;;;;;;;2.07;2.00;;;11.50;99.90;;;;;;5066081;28;20311;-78
2024/03/15 06:31:21;;;;;;;0.30;0.20;;;11.50;99.90;;;;;;5066086;28;20304;-78
2024/03/15 06:33:49;;;;;;;6.47;2.95;;;11.50;99.90;;;;;;5067318;28;20213;-74
2024/03/15 06:36:17;;;;;;;0.30;0.27;;;11.60;99.90;;;;;;5065755;28;20712;-74
2024/03/15 06:43:58;;;;;;;0.30;0.20;;;11.70;99.90;;;;;;5067276;28;20430;-79
2024/03/15 06:46:41;;;;;;;0.40;0.20;;;11.80;99.90;;;;;;5067432;28;20181;-79
2024/03/15 06:49:16;;;;;;;0.30;0.20;;;11.90;99.90;;;;;;5066699;28;20473;-74
2024/03/15 06:54:26;;;;;;;1.70;1.70;;;12.00;99.90;;;;;;5067399;28;20399;-74
2024/03/15 06:56:52;;;;;;;2.20;2.10;;;12.00;99.90;;;;;;5066873;28;20405;-74
2024/03/15 06:59:18;;;;;;;4.17;2.93;;;12.10;99.90;;;;;;5066820;28;20478;-78
2024/03/15 07:01:47;;;;;;;0.97;0.97;;;12.10;99.90;;;;;;5065723;28;20967;-74
2024/03/15 07:04:13;;;;;;;0.30;0.20;;;12.10;99.90;;;;;;5066989;28;20691;-74
2024/03/15 07:06:39;;;;;;;0.30;0.20;;;12.20;99.90;;;;;;5066425;28;20453;-78
2024/03/15 07:09:05;;;;;;;0.30;0.20;;;12.30;99.90;;;;;;5065197;28;20408;-74
2024/03/15 07:11:32;;;;;;;0.30;0.20;;;12.30;99.90;;;;;;5066195;28;20220;-79
2024/03/15 07:13:58;;;;;;;0.30;0.20;;;12.40;99.90;;;;;;5065774;28;20449;-75
2024/03/15 07:16:26;;;;;;;1.30;1.20;;;12.40;99.90;;;;;;5066587;28;20488;-79
2024/03/15 07:18:52;;;;;;;0.60;0.60;;;12.50;99.90;;;;;;5064948;28;20639;-79
2024/03/15 07:21:17;;;;;;;0.40;0.20;;;12.60;99.90;;;;;;5066565;28;20911;-74
2024/03/15 07:23:43;;;;;;;1.73;1.23;;;12.70;99.90;;;;;;5066492;28;20185;-78
2024/03/15 07:26:10;;;;;;;0.30;0.20;;;12.80;99.90;;;;;;5064746;28;20181;-74
2024/03/15 07:28:39;;;;;;;1.90;1.80;;;12.80;99.90;;;;;;5048290;28;20795;-79
2024/03/15 07:31:05;;;;;;;0.87;0.87;;;12.90;99.90;;;;;;5066361;28;20463;-74
2024/03/15 07:33:31;;;;;;;0.30;0.20;;;13.00;99.90;;;;;;5064457;28;20442;-74
2024/03/15 07:36:01;;;;;;;0.30;0.30;;;13.10;99.90;;;;;;5064447;28;20185;-75
2024/03/15 07:38:27;;;;;;;0.30;0.30;;;13.20;99.90;;;;;;5065980;28;20418;-74
2024/03/15 07:40:55;;;;;;;1.03;1.03;;;13.30;99.90;;;;;;5065256;28;20418;-75
2024/03/15 07:43:21;;;;;;;2.63;2.33;;;13.40;99.90;;;;;;5064505;28;20710;-75
2024/03/15 07:45:48;;;;;;;0.40;0.40;;;13.60;99.90;;;;;;5064468;28;20430;-74
2024/03/15 07:48:17;;;;;;;1.53;1.43;;;13.80;99.90;;;;;;5064155;28;20576;-74
2024/03/15 07:50:43;;;;;;;0.50;0.50;;;14.00;99.90;;;;;;5065801;28;20532;-78
2024/03/15 07:53:09;;;;;;;5.70;3.53;;;14.20;99.90;;;;;;5065933;28;20453;-79
2024/03/15 07:55:35;;;;;;;1.73;1.67;;;14.40;99.90;;;;;;5064635;28;20417;-75
2024/03/15 07:58:02;;;;;;;0.30;0.30;;;14.50;99.90;;;;;;5065662;28;20487;-79
2024/03/15 08:00:28;;;;;;;0.83;0.83;;;14.70;99.90;;;;;;5064328;28;20872;-78
2024/03/15 08:02:56;;;;;;;0.30;0.20;;;14.90;99.90;;;;;;5065523;28;20434;-75
2024/03/15 08:05:26;;;;;;;0.53;0.53;;;15.00;99.90;;;;;;5064376;28;20409;-76
2024/03/15 08:07:52;;;;;;;2.83;2.53;;;15.20;99.90;;;;;;5065102;28;20474;-75
2024/03/15 08:10:18;;;;;;;3.80;0.67;;;15.30;99.90;;;;;;5065564;28;20476;-75
2024/03/15 08:12:44;;;;;;;1.73;1.70;;;15.50;99.90;;;;;;5065725;28;20721;-75
2024/03/15 08:15:10;;;;;;;0.30;0.20;;;15.70;99.90;;;;;;5065873;28;20751;-75
2024/03/15 08:17:36;;;;;;;0.50;0.50;;;15.90;99.90;;;;;;5063689;28;20489;-79
2024/03/15 08:20:08;;;;;;;7.37;6.90;;;16.10;99.90;;;;;;5065563;28;20188;-79
2024/03/15 08:22:37;;;;;;;0.40;0.30;;;16.50;99.90;;;;;;5065305;28;20283;-75
2024/03/15 08:25:06;;;;;;;1.40;1.30;;;17.00;99.90;;;;;;5064380;28;20422;-74
2024/03/15 08:27:35;;;;;;;6.57;3.80;;;17.60;99.90;;;;;;5063323;28;20986;-80
2024/03/15 08:30:03;;;;;;;0.73;0.73;;;18.30;99.90;;;;;;5065492;28;20722;-80
2024/03/15 08:32:31;;;;;;;0.70;0.70;;;18.60;99.90;;;;;;5063484;28;20455;-79
2024/03/15 08:34:58;;;;;;;0.47;0.47;;;18.80;99.90;;;;;;5064059;28;20420;-75
2024/03/15 08:37:24;;;;;;;0.40;0.37;;;18.80;99.90;;;;;;5064971;28;20405;-79
2024/03/15 08:39:51;;;;;;;0.77;0.70;;;18.70;99.90;;;;;;5065379;28;20425;-75
2024/03/15 08:42:17;;;;;;;0.30;0.20;;;18.60;99.90;;;;;;5063589;28;20512;-80
2024/03/15 08:44:43;;;;;;;0.40;0.30;;;18.60;99.90;;;;;;5063537;28;20416;-75
2024/03/15 08:47:09;;;;;;;0.40;0.30;;;18.50;99.90;;;;;;5064438;28;20754;-75
2024/03/15 08:49:36;;;;;;;1.07;1.07;;;18.50;99.90;;;;;;5065062;28;20807;-75
2024/03/15 08:52:03;;;;;;;2.23;1.90;;;18.40;99.90;;;;;;5063957;28;20553;-80
2024/03/15 08:54:29;;;;;;;2.30;2.20;;;18.30;99.90;;;;;;5064938;28;20432;-75
2024/03/15 08:56:56;;;;;;;0.97;0.97;;;18.40;99.90;;;;;;5065163;28;21104;-79
2024/03/15 08:59:23;;;;;;;0.60;0.47;;;18.30;99.90;;;;;;5065154;28;20914;-79
2024/03/15 09:01:48;;;;;;;0.40;0.30;;;18.30;99.90;;;;;;5064785;28;20421;-75
2024/03/15 09:04:15;;;;;;;0.40;0.37;;;18.20;99.90;;;;;;5063957;28;20498;-75
2024/03/15 09:06:41;;;;;;;1.07;1.07;;;18.20;99.90;;;;;;5065050;28;20222;-75
2024/03/15 09:09:13;;;;;;;0.30;0.30;;;18.20;99.90;;;;;;5064755;28;20475;-75
2024/03/15 09:11:39;;;;;;;1.40;1.40;;;18.10;99.90;;;;;;5063311;28;20215;-80
2024/03/15 09:14:07;;;;;;;0.57;0.57;;;18.20;99.90;;;;;;5064972;28;20514;-79
2024/03/15 09:16:35;;;;;;;0.63;0.63;;;18.40;99.90;;;;;;5063024;28;20456;-79
2024/03/15 09:19:02;;;;;;;0.93;0.70;;;18.80;99.90;;;;;;5065170;28;20433;-75
2024/03/15 09:21:30;;;;;;;0.40;0.30;;;19.10;99.90;;;;;;5064448;28;20435;-75
2024/03/15 09:23:56;;;;;;;0.93;0.73;;;19.30;99.90;;;;;;5063616;28;20497;-75
2024/03/15 09:26:22;;;;;;;2.30;1.27;;;19.70;99.90;;;;;;5064772;28;20413;-77
2024/03/15 09:28:49;;;;;;;0.93;0.93;;;20.00;99.90;;;;;;5063290;28;20480;-79
2024/03/15 09:31:15;;;;;;;0.50;0.50;;;20.30;99.90;;;;;;5064750;28;20177;-79
2024/03/15 09:33:44;;;;;;;0.87;0.87;;;20.40;99.90;;;;;;5063195;28;20981;-75
2024/03/15 09:36:21;;;;;;;0.43;0.43;;;20.70;99.90;;;;;;5063369;28;20428;-75
2024/03/15 09:38:47;;;;;;;0.40;0.30;;;21.10;99.50;;;;;;5064827;28;20425;-75
2024/03/15 09:41:19;;;;;;;0.33;0.30;;;21.40;98.00;;;;;;5064536;28;20500;-74
2024/03/15 09:43:45;;;;;;;0.53;0.53;;;21.20;96.80;;;;;;5063790;28;20847;-74
2024/03/15 09:46:18;;;;;;;0.30;0.30;;;20.80;97.20;;;;;;5064386;28;20943;-75
2024/03/15 09:48:44;;;;;;;0.30;0.20;;;21.00;96.70;;;;;;5063062;28;20816;-75
2024/03/15 09:51:16;;;;;;;0.50;0.50;;;21.10;97.10;;;;;;5063149;28;20794;-79
2024/03/15 09:53:42;;;;;;;0.40;0.20;;;21.50;96.40;;;;;;5064611;28;20942;-75
2024/03/15 09:56:17;;;;;;;0.30;0.20;;;21.90;96.20;;;;;;5065398;28;20425;-80
2024/03/15 09:58:49;;;;;;;0.40;0.30;;;22.30;95.50;;;;;;5068432;28;20920;-79
2024/03/15 10:01:15;;;;;;;0.70;0.60;;;22.70;95.10;;;;;;5068395;28;20428;-75
2024/03/15 10:03:47;;;;;;;1.13;0.80;;;22.80;93.40;;;;;;5068481;28;20457;-79
2024/03/15 10:06:17;;;;;;;0.30;0.27;;;22.60;93.20;;;;;;5067930;28;20424;-79
2024/03/15 10:08:43;;;;;;;1.97;1.70;;;22.60;92.00;;;;;;5067792;28;20481;-75
2024/03/15 10:11:09;;;;;;;0.53;0.53;;;22.50;91.00;;;;;;5067880;28;20419;-80
2024/03/15 10:13:35;;;;;;;1.80;0.90;;;22.20;91.90;;;;;;5067664;28;20672;-75
2024/03/15 10:16:04;;;;;;;0.50;0.50;;;22.00;90.70;;;;;;5067455;28;20231;-79
2024/03/15 10:18:32;;;;;;;0.30;0.20;;;21.80;89.90;;;;;;5067417;28;20228;-75
2024/03/15 10:20:58;;;;;;;0.30;0.27;;;21.40;89.40;;;;;;5067620;28;20929;-79
2024/03/15 10:23:24;;;;;;;0.30;0.30;;;20.90;90.20;;;;;;5067411;28;20517;-75
2024/03/15 10:25:50;;;;;;;0.30;0.23;;;20.50;91.00;;;;;;5067746;28;20410;-75
2024/03/15 10:28:19;;;;;;;0.40;0.20;;;20.30;91.60;;;;;;5067488;28;20220;-75
2024/03/15 10:30:47;;;;;;;0.30;0.20;;;19.90;91.90;;;;;;5067227;28;20822;-75
2024/03/15 10:33:13;;;;;;;0.30;0.20;;;19.60;92.30;;;;;;5067805;28;20748;-75
2024/03/15 10:35:39;;;;;;;0.30;0.30;;;19.40;92.80;;;;;;5066143;28;20460;-79
2024/03/15 10:38:05;;;;;;;0.30;0.30;;;19.20;93.10;;;;;;5067022;28;20441;-75
2024/03/15 10:40:34;;;;;;;0.90;0.90;;;19.00;93.60;;;;;;5067332;28;20505;-79
2024/03/15 10:43:08;;;;;;;0.40;0.30;;;18.90;93.80;;;;;;5066636;28;20520;-74
2024/03/15 10:45:35;;;;;;;0.53;0.50;;;18.70;93.30;;;;;;5066987;28;20516;-79
2024/03/15 10:48:06;;;;;;;0.53;0.53;;;18.50;93.10;;;;;;5066915;28;20556;-75
2024/03/15 10:50:34;;;;;;;0.30;0.20;;;18.30;93.20;;;;;;5065644;28;20988;-75
2024/03/15 10:53:05;;;;;;;0.30;0.20;;;18.20;91.60;;;;;;5065603;28;20468;-80
2024/03/15 10:55:30;;;;;;;0.30;0.20;;;18.10;92.80;;;;;;5067309;28;20751;-77
2024/03/15 10:57:58;;;;;;;0.30;0.20;;;18.10;93.10;;;;;;5066782;28;20492;-79
2024/03/15 11:00:28;;;;;;;5.30;1.03;;;18.10;93.00;;;;;;5067335;28;20259;-75
2024/03/15 11:02:56;;;;;;;0.30;0.20;;;18.10;92.20;;;;;;5065523;28;20434;-75
2024/03/15 11:05:23;;;;;;;2.93;2.77;;;18.10;91.40;;;;;;5067167;28;20447;-78
2024/03/15 11:08:10;;;;;;;1.03;1.03;;;18.10;91.60;;;;;;5065822;28;20500;-75
2024/03/15 11:10:36;;;;;;;0.30;0.20;;;18.10;91.20;;;;;;5064881;28;20987;-75
2024/03/15 11:13:07;;;;;;;0.30;0.20;;;18.20;91.50;;;;;;5066441;28;20434;-79
2024/03/15 11:15:34;;;;;;;0.40;0.40;;;18.10;91.50;;;;;;5065582;28;20703;-78
2024/03/15 11:18:08;;;;;;;0.30;0.20;;;18.00;91.40;;;;;;5064150;28;20516;-75
2024/03/15 11:20:49;;;;;;;0.50;0.50;;;18.00;91.70;;;;;;5066014;28;20469;-75
2024/03/15 11:23:17;;;;;;;0.30;0.20;;;17.80;91.80;;;;;;5065612;28;20443;-79
2024/03/15 11:25:59;;;;;;;1.30;1.30;;;17.60;92.50;;;;;;5065570;28;20421;-75
2024/03/15 11:28:26;;;;;;;0.30;0.20;;;17.30;92.30;;;;;;5064121;28;20771;-79
2024/03/15 11:30:52;;;;;;;0.30;0.20;;;17.20;92.70;;;;;;5065286;28;20803;-78
2024/03/15 11:33:19;;;;;;;0.30;0.20;;;17.20;93.00;;;;;;5065551;28;20437;-74
2024/03/15 11:35:45;;;;;;;0.30;0.20;;;17.10;92.70;;;;;;5065326;28;20454;-75
2024/03/15 11:38:18;;;;;;;0.30;0.20;;;17.20;92.60;;;;;;5065438;28;20810;-79
2024/03/15 11:40:44;;;;;;;1.37;0.50;;;17.10;92.90;;;;;;5065321;28;20515;-75
2024/03/15 11:43:11;;;;;;;0.40;0.40;;;17.10;93.20;;;;;;5063139;28;20440;-74
2024/03/15 11:45:38;;;;;;;0.50;0.50;;;17.00;92.80;;;;;;5063324;28;20416;-75
2024/03/15 11:48:23;;;;;;;0.30;0.20;;;16.90;93.10;;;;;;5065048;28;20531;-78
2024/03/15 11:50:51;;;;;;;0.93;0.93;;;16.90;93.10;;;;;;5065245;28;20523;-79
2024/03/15 11:53:18;;;;;;;0.30;0.20;;;16.90;93.10;;;;;;5065055;28;20538;-74
2024/03/15 11:55:45;;;;;;;0.33;0.30;;;16.90;93.20;;;;;;5065022;28;20750;-74
2024/03/15 11:58:15;;;;;;;0.30;0.20;;;16.80;93.40;;;;;;5065212;28;20530;-80
2024/03/15 12:00:41;;;;;;;0.30;0.20;;;16.80;93.70;;;;;;5065329;28;20435;-74
2024/03/15 12:03:11;;;;;;;0.30;0.20;;;16.80;93.70;;;;;;5065174;28;20452;-79
2024/03/15 12:05:42;;;;;;;0.30;0.20;;;16.80;93.30;;;;;;5063754;28;20536;-79
2024/03/15 12:08:18;;;;;;;2.50;2.40;;;16.80;93.80;;;;;;5063640;28;20511;-79
2024/03/15 12:10:44;;;;;;;0.30;0.20;;;16.70;93.50;;;;;;5065092;28;20519;-74
2024/03/15 12:13:24;;;;;;;0.37;0.27;;;16.60;93.80;;;;;;5064230;28;20461;-79
2024/03/15 12:15:51;;;;;;;0.30;0.20;;;16.60;93.70;;;;;;5063992;28;20981;-74
2024/03/15 12:18:22;;;;;;;1.03;1.03;;;16.60;93.70;;;;;;5052617;28;300775;-78
2024/03/15 12:20:50;;;;;;;0.30;0.20;;;16.60;93.60;;;;;;5064256;28;20435;-74
2024/03/15 12:23:18;;;;;;;0.30;0.30;;;16.70;93.60;;;;;;5062814;28;21255;-74
2024/03/15 12:25:48;;;;;;;0.30;0.20;;;16.80;94.00;;;;;;5065050;28;20421;-75
2024/03/15 12:28:18;;;;;;;0.30;0.30;;;16.80;93.70;;;;;;5063690;28;20517;-75
2024/03/15 12:30:45;;;;;;;0.30;0.20;;;16.90;93.70;;;;;;5063225;28;20416;-74
2024/03/15 12:33:11;;;;;;;0.30;0.30;;;16.90;93.40;;;;;;5063669;28;20968;-74
2024/03/15 12:35:38;;;;;;;0.30;0.30;;;16.90;93.20;;;;;;5062155;28;20815;-74
2024/03/15 12:38:05;;;;;;;0.40;0.30;;;16.90;93.50;;;;;;5063382;28;20808;-74
2024/03/15 12:40:31;;;;;;;0.30;0.20;;;16.80;93.30;;;;;;5063872;28;20415;-78
2024/03/15 12:42:57;;;;;;;0.87;0.77;;;16.80;93.00;;;;;;5061720;28;20434;-75
2024/03/15 12:45:23;;;;;;;0.30;0.20;;;16.80;92.80;;;;;;5063223;28;20968;-75
2024/03/15 12:47:49;;;;;;;0.70;0.70;;;16.70;93.00;;;;;;5064537;28;20242;-74
2024/03/15 12:50:18;;;;;;;0.30;0.20;;;16.70;93.20;;;;;;5065369;28;20184;-79
2024/03/15 12:52:45;;;;;;;0.60;0.60;;;16.80;93.30;;;;;;5064944;28;20602;-74
2024/03/15 12:55:14;;;;;;;2.00;1.90;;;16.80;93.20;;;;;;5063955;28;20461;-75